sensor_id;sensor_type;location;lat;lon;timestamp;P1;durP1;ratioP1;P2;durP2;ratioP2
37241;SDS011;23135;51.078;12.108;2023-09-12T00:00:48;15.50;;;6.93;;
37241;SDS011;23135;51.078;12.108;2023-09-12T00:03:14;17.33;;;6.57;;
37241;SDS011;23135;51.078;12.108;2023-09-12T00:05:40;16.08;;;6.15;;
37241;SDS011;23135;51.078;12.108;2023-09-12T00:08:05;10.07;;;6.35;;
37241;SDS011;23135;51.078;12.108;2023-09-12T00:10:31;12.93;;;5.93;;
37241;SDS011;23135;51.078;12.108;2023-09-12T00:12:57;17.58;;;7.15;;
37241;SDS011;23135;51.078;12.108;2023-09-12T00:15:27;22.70;;;9.10;;
37241;SDS011;23135;51.078;12.108;2023-09-12T00:17:53;14.30;;;6.93;;
37241;SDS011;23135;51.078;12.108;2023-09-12T00:20:18;17.33;;;7.25;;
37241;SDS011;23135;51.078;12.108;2023-09-12T00:22:45;14.13;;;6.88;;
37241;SDS011;23135;51.078;12.108;2023-09-12T00:25:11;13.18;;;7.15;;
37241;SDS011;23135;51.078;12.108;2023-09-12T00:27:36;14.73;;;6.47;;
37241;SDS011;23135;51.078;12.108;2023-09-12T00:30:02;11.35;;;6.32;;
37241;SDS011;23135;51.078;12.108;2023-09-12T00:32:28;16.40;;;6.75;;
37241;SDS011;23135;51.078;12.108;2023-09-12T00:34:54;9.70;;;6.18;;
37241;SDS011;23135;51.078;12.108;2023-09-12T00:37:19;7.93;;;5.25;;
37241;SDS011;23135;51.078;12.108;2023-09-12T00:39:45;10.57;;;6.00;;
37241;SDS011;23135;51.078;12.108;2023-09-12T00:42:12;14.75;;;6.47;;
37241;SDS011;23135;51.078;12.108;2023-09-12T00:44:38;11.77;;;6.28;;
37241;SDS011;23135;51.078;12.108;2023-09-12T00:47:03;17.60;;;6.10;;
37241;SDS011;23135;51.078;12.108;2023-09-12T00:49:31;12.05;;;6.63;;
37241;SDS011;23135;51.078;12.108;2023-09-12T00:51:58;17.17;;;6.57;;
37241;SDS011;23135;51.078;12.108;2023-09-12T00:54:24;17.48;;;7.95;;
37241;SDS011;23135;51.078;12.108;2023-09-12T00:56:50;10.25;;;6.45;;
37241;SDS011;23135;51.078;12.108;2023-09-12T00:59:15;16.50;;;7.03;;
37241;SDS011;23135;51.078;12.108;2023-09-12T01:01:43;15.65;;;7.32;;
37241;SDS011;23135;51.078;12.108;2023-09-12T01:04:09;13.25;;;7.20;;
37241;SDS011;23135;51.078;12.108;2023-09-12T01:06:35;17.00;;;7.88;;
37241;SDS011;23135;51.078;12.108;2023-09-12T01:09:02;15.35;;;7.53;;
37241;SDS011;23135;51.078;12.108;2023-09-12T01:11:28;16.30;;;7.63;;
37241;SDS011;23135;51.078;12.108;2023-09-12T01:13:54;18.33;;;8.05;;
37241;SDS011;23135;51.078;12.108;2023-09-12T01:16:19;14.55;;;8.07;;
37241;SDS011;23135;51.078;12.108;2023-09-12T01:18:45;13.95;;;7.57;;
37241;SDS011;23135;51.078;12.108;2023-09-12T01:29:27;17.20;;;7.32;;
37241;SDS011;23135;51.078;12.108;2023-09-12T01:31:56;15.77;;;8.10;;
37241;SDS011;23135;51.078;12.108;2023-09-12T01:34:22;17.92;;;6.97;;
37241;SDS011;23135;51.078;12.108;2023-09-12T01:36:47;17.30;;;6.85;;
37241;SDS011;23135;51.078;12.108;2023-09-12T01:39:13;13.38;;;7.63;;
37241;SDS011;23135;51.078;12.108;2023-09-12T01:41:39;10.93;;;7.38;;
37241;SDS011;23135;51.078;12.108;2023-09-12T01:44:08;26.80;;;7.93;;
37241;SDS011;23135;51.078;12.108;2023-09-12T01:46:35;15.82;;;7.45;;
37241;SDS011;23135;51.078;12.108;2023-09-12T01:49:02;14.18;;;7.13;;
37241;SDS011;23135;51.078;12.108;2023-09-12T01:51:30;22.80;;;6.88;;
37241;SDS011;23135;51.078;12.108;2023-09-12T01:53:56;13.60;;;7.32;;
37241;SDS011;23135;51.078;12.108;2023-09-12T01:56:23;18.08;;;6.43;;
37241;SDS011;23135;51.078;12.108;2023-09-12T01:58:49;13.48;;;7.15;;
37241;SDS011;23135;51.078;12.108;2023-09-12T02:01:15;14.40;;;7.80;;
37241;SDS011;23135;51.078;12.108;2023-09-12T02:03:40;20.85;;;8.57;;
37241;SDS011;23135;51.078;12.108;2023-09-12T02:06:06;22.63;;;8.48;;
37241;SDS011;23135;51.078;12.108;2023-09-12T02:08:32;22.52;;;9.77;;
37241;SDS011;23135;51.078;12.108;2023-09-12T02:10:57;15.93;;;8.45;;
37241;SDS011;23135;51.078;12.108;2023-09-12T02:13:23;14.60;;;7.68;;
37241;SDS011;23135;51.078;12.108;2023-09-12T02:15:49;16.38;;;7.53;;
37241;SDS011;23135;51.078;12.108;2023-09-12T02:18:14;20.85;;;7.03;;
37241;SDS011;23135;51.078;12.108;2023-09-12T02:20:40;13.10;;;6.55;;
37241;SDS011;23135;51.078;12.108;2023-09-12T02:23:06;23.70;;;7.43;;
37241;SDS011;23135;51.078;12.108;2023-09-12T02:25:32;12.15;;;7.18;;
37241;SDS011;23135;51.078;12.108;2023-09-12T02:27:57;25.65;;;7.20;;
37241;SDS011;23135;51.078;12.108;2023-09-12T02:30:23;17.73;;;8.02;;
37241;SDS011;23135;51.078;12.108;2023-09-12T02:32:49;20.08;;;7.47;;
37241;SDS011;23135;51.078;12.108;2023-09-12T02:35:14;14.20;;;7.25;;
37241;SDS011;23135;51.078;12.108;2023-09-12T02:37:40;13.27;;;6.50;;
37241;SDS011;23135;51.078;12.108;2023-09-12T02:40:06;13.93;;;7.60;;
37241;SDS011;23135;51.078;12.108;2023-09-12T02:42:32;15.57;;;7.10;;
37241;SDS011;23135;51.078;12.108;2023-09-12T02:44:58;24.50;;;6.95;;
37241;SDS011;23135;51.078;12.108;2023-09-12T02:47:23;14.52;;;8.00;;
37241;SDS011;23135;51.078;12.108;2023-09-12T02:49:49;12.82;;;7.05;;
37241;SDS011;23135;51.078;12.108;2023-09-12T02:52:14;17.45;;;6.57;;
37241;SDS011;23135;51.078;12.108;2023-09-12T02:54:40;17.58;;;8.00;;
37241;SDS011;23135;51.078;12.108;2023-09-12T02:57:06;20.33;;;7.20;;
37241;SDS011;23135;51.078;12.108;2023-09-12T02:59:31;15.25;;;6.68;;
37241;SDS011;23135;51.078;12.108;2023-09-12T03:01:57;17.15;;;6.63;;
37241;SDS011;23135;51.078;12.108;2023-09-12T03:04:25;13.98;;;6.45;;
37241;SDS011;23135;51.078;12.108;2023-09-12T03:06:52;8.25;;;6.47;;
37241;SDS011;23135;51.078;12.108;2023-09-12T03:09:18;9.55;;;6.13;;
37241;SDS011;23135;51.078;12.108;2023-09-12T03:11:44;14.45;;;7.22;;
37241;SDS011;23135;51.078;12.108;2023-09-12T03:14:10;12.02;;;7.03;;
37241;SDS011;23135;51.078;12.108;2023-09-12T03:16:35;18.17;;;7.75;;
37241;SDS011;23135;51.078;12.108;2023-09-12T03:19:02;13.60;;;6.20;;
37241;SDS011;23135;51.078;12.108;2023-09-12T03:21:28;15.35;;;6.50;;
37241;SDS011;23135;51.078;12.108;2023-09-12T03:23:54;14.13;;;6.88;;
37241;SDS011;23135;51.078;12.108;2023-09-12T03:26:19;17.50;;;6.70;;
37241;SDS011;23135;51.078;12.108;2023-09-12T03:28:45;21.70;;;7.07;;
37241;SDS011;23135;51.078;12.108;2023-09-12T03:31:14;15.52;;;7.30;;
37241;SDS011;23135;51.078;12.108;2023-09-12T03:33:40;15.25;;;7.60;;
37241;SDS011;23135;51.078;12.108;2023-09-12T03:36:06;21.40;;;7.65;;
37241;SDS011;23135;51.078;12.108;2023-09-12T03:38:33;23.30;;;8.50;;
37241;SDS011;23135;51.078;12.108;2023-09-12T03:40:58;15.63;;;7.20;;
37241;SDS011;23135;51.078;12.108;2023-09-12T03:43:25;13.45;;;7.32;;
37241;SDS011;23135;51.078;12.108;2023-09-12T03:45:50;18.02;;;7.75;;
37241;SDS011;23135;51.078;12.108;2023-09-12T03:48:16;15.25;;;7.45;;
37241;SDS011;23135;51.078;12.108;2023-09-12T03:50:42;15.25;;;8.07;;
37241;SDS011;23135;51.078;12.108;2023-09-12T03:53:08;17.55;;;8.43;;
37241;SDS011;23135;51.078;12.108;2023-09-12T03:55:33;18.20;;;9.50;;
37241;SDS011;23135;51.078;12.108;2023-09-12T03:57:59;17.75;;;8.02;;
37241;SDS011;23135;51.078;12.108;2023-09-12T04:00:25;16.90;;;8.00;;
37241;SDS011;23135;51.078;12.108;2023-09-12T04:02:51;11.30;;;7.38;;
37241;SDS011;23135;51.078;12.108;2023-09-12T04:05:16;20.13;;;9.63;;
37241;SDS011;23135;51.078;12.108;2023-09-12T04:07:42;15.93;;;6.90;;
37241;SDS011;23135;51.078;12.108;2023-09-12T04:10:07;18.02;;;7.97;;
37241;SDS011;23135;51.078;12.108;2023-09-12T04:12:33;16.13;;;7.70;;
37241;SDS011;23135;51.078;12.108;2023-09-12T04:14:59;20.05;;;9.35;;
37241;SDS011;23135;51.078;12.108;2023-09-12T04:17:24;16.85;;;8.05;;
37241;SDS011;23135;51.078;12.108;2023-09-12T04:19:50;15.25;;;8.00;;
37241;SDS011;23135;51.078;12.108;2023-09-12T04:22:16;16.23;;;7.78;;
37241;SDS011;23135;51.078;12.108;2023-09-12T04:24:41;18.27;;;9.10;;
37241;SDS011;23135;51.078;12.108;2023-09-12T04:27:07;13.52;;;7.57;;
37241;SDS011;23135;51.078;12.108;2023-09-12T04:29:33;14.93;;;7.63;;
37241;SDS011;23135;51.078;12.108;2023-09-12T04:32:02;17.38;;;7.65;;
37241;SDS011;23135;51.078;12.108;2023-09-12T04:34:28;14.93;;;6.80;;
37241;SDS011;23135;51.078;12.108;2023-09-12T04:36:54;24.10;;;7.22;;
37241;SDS011;23135;51.078;12.108;2023-09-12T04:39:20;17.13;;;7.43;;
37241;SDS011;23135;51.078;12.108;2023-09-12T04:41:46;19.23;;;7.93;;
37241;SDS011;23135;51.078;12.108;2023-09-12T04:44:11;19.83;;;8.27;;
37241;SDS011;23135;51.078;12.108;2023-09-12T04:46:37;23.08;;;7.85;;
37241;SDS011;23135;51.078;12.108;2023-09-12T04:49:03;15.50;;;7.65;;
37241;SDS011;23135;51.078;12.108;2023-09-12T04:51:29;12.02;;;7.75;;
37241;SDS011;23135;51.078;12.108;2023-09-12T04:53:55;27.30;;;7.70;;
37241;SDS011;23135;51.078;12.108;2023-09-12T04:56:20;14.27;;;7.80;;
37241;SDS011;23135;51.078;12.108;2023-09-12T04:58:49;16.77;;;7.68;;
37241;SDS011;23135;51.078;12.108;2023-09-12T05:01:15;14.15;;;7.30;;
37241;SDS011;23135;51.078;12.108;2023-09-12T05:03:41;11.48;;;6.85;;
37241;SDS011;23135;51.078;12.108;2023-09-12T05:06:07;15.63;;;7.68;;
37241;SDS011;23135;51.078;12.108;2023-09-12T05:08:32;15.65;;;7.25;;
37241;SDS011;23135;51.078;12.108;2023-09-12T05:10:58;22.55;;;7.88;;
37241;SDS011;23135;51.078;12.108;2023-09-12T05:13:23;19.00;;;7.57;;
37241;SDS011;23135;51.078;12.108;2023-09-12T05:15:49;20.92;;;8.55;;
37241;SDS011;23135;51.078;12.108;2023-09-12T05:18:15;19.25;;;7.43;;
37241;SDS011;23135;51.078;12.108;2023-09-12T05:20:40;20.00;;;7.70;;
37241;SDS011;23135;51.078;12.108;2023-09-12T05:23:06;18.92;;;7.75;;
37241;SDS011;23135;51.078;12.108;2023-09-12T05:25:32;18.30;;;8.07;;
37241;SDS011;23135;51.078;12.108;2023-09-12T05:27:57;19.73;;;7.47;;
37241;SDS011;23135;51.078;12.108;2023-09-12T05:30:23;16.35;;;7.18;;
37241;SDS011;23135;51.078;12.108;2023-09-12T05:32:48;17.10;;;8.57;;
37241;SDS011;23135;51.078;12.108;2023-09-12T05:35:14;12.23;;;7.60;;
37241;SDS011;23135;51.078;12.108;2023-09-12T05:37:39;12.90;;;7.55;;
37241;SDS011;23135;51.078;12.108;2023-09-12T05:40:05;16.13;;;7.38;;
37241;SDS011;23135;51.078;12.108;2023-09-12T05:42:31;12.13;;;8.05;;
37241;SDS011;23135;51.078;12.108;2023-09-12T05:44:57;15.70;;;7.70;;
37241;SDS011;23135;51.078;12.108;2023-09-12T05:47:22;14.82;;;8.13;;
37241;SDS011;23135;51.078;12.108;2023-09-12T05:49:48;12.13;;;8.15;;
37241;SDS011;23135;51.078;12.108;2023-09-12T05:52:14;23.98;;;8.27;;
37241;SDS011;23135;51.078;12.108;2023-09-12T05:54:41;17.73;;;8.45;;
37241;SDS011;23135;51.078;12.108;2023-09-12T05:57:07;18.23;;;9.15;;
37241;SDS011;23135;51.078;12.108;2023-09-12T05:59:38;21.80;;;8.25;;
37241;SDS011;23135;51.078;12.108;2023-09-12T06:02:04;23.33;;;8.38;;
37241;SDS011;23135;51.078;12.108;2023-09-12T06:04:31;24.02;;;9.40;;
37241;SDS011;23135;51.078;12.108;2023-09-12T06:06:57;25.73;;;8.60;;
37241;SDS011;23135;51.078;12.108;2023-09-12T06:09:23;21.38;;;7.80;;
37241;SDS011;23135;51.078;12.108;2023-09-12T06:11:48;22.75;;;9.43;;
37241;SDS011;23135;51.078;12.108;2023-09-12T06:14:14;17.33;;;9.80;;
37241;SDS011;23135;51.078;12.108;2023-09-12T06:16:39;20.33;;;8.43;;
37241;SDS011;23135;51.078;12.108;2023-09-12T06:19:05;14.13;;;7.97;;
37241;SDS011;23135;51.078;12.108;2023-09-12T06:21:31;11.27;;;7.20;;
37241;SDS011;23135;51.078;12.108;2023-09-12T06:29:04;11.48;;;6.75;;
37241;SDS011;23135;51.078;12.108;2023-09-12T06:31:30;15.50;;;7.35;;
37241;SDS011;23135;51.078;12.108;2023-09-12T06:33:56;16.85;;;8.02;;
37241;SDS011;23135;51.078;12.108;2023-09-12T06:36:22;19.67;;;6.60;;
37241;SDS011;23135;51.078;12.108;2023-09-12T06:38:49;15.23;;;6.47;;
37241;SDS011;23135;51.078;12.108;2023-09-12T06:41:15;13.15;;;7.35;;
37241;SDS011;23135;51.078;12.108;2023-09-12T06:43:44;15.68;;;6.05;;
37241;SDS011;23135;51.078;12.108;2023-09-12T06:46:10;19.02;;;7.97;;
37241;SDS011;23135;51.078;12.108;2023-09-12T06:48:35;15.45;;;7.20;;
37241;SDS011;23135;51.078;12.108;2023-09-12T06:51:04;13.63;;;7.10;;
37241;SDS011;23135;51.078;12.108;2023-09-12T06:53:31;17.25;;;6.53;;
37241;SDS011;23135;51.078;12.108;2023-09-12T06:55:56;13.65;;;6.43;;
37241;SDS011;23135;51.078;12.108;2023-09-12T06:58:23;15.02;;;6.43;;
37241;SDS011;23135;51.078;12.108;2023-09-12T07:00:49;15.68;;;6.97;;
37241;SDS011;23135;51.078;12.108;2023-09-12T07:03:15;19.05;;;7.20;;
37241;SDS011;23135;51.078;12.108;2023-09-12T07:05:41;14.68;;;6.78;;
37241;SDS011;23135;51.078;12.108;2023-09-12T07:08:08;17.92;;;6.05;;
37241;SDS011;23135;51.078;12.108;2023-09-12T07:10:34;14.82;;;6.43;;
37241;SDS011;23135;51.078;12.108;2023-09-12T07:13:00;15.43;;;7.10;;
37241;SDS011;23135;51.078;12.108;2023-09-12T07:15:27;14.65;;;7.35;;
37241;SDS011;23135;51.078;12.108;2023-09-12T07:17:53;13.38;;;5.88;;
37241;SDS011;23135;51.078;12.108;2023-09-12T07:20:19;18.83;;;7.05;;
37241;SDS011;23135;51.078;12.108;2023-09-12T07:22:45;10.63;;;6.00;;
37241;SDS011;23135;51.078;12.108;2023-09-12T07:25:11;14.20;;;5.90;;
37241;SDS011;23135;51.078;12.108;2023-09-12T07:27:39;11.80;;;5.10;;
37241;SDS011;23135;51.078;12.108;2023-09-12T07:30:05;11.27;;;4.80;;
37241;SDS011;23135;51.078;12.108;2023-09-12T07:32:31;15.02;;;5.80;;
37241;SDS011;23135;51.078;12.108;2023-09-12T07:34:57;13.50;;;4.82;;
37241;SDS011;23135;51.078;12.108;2023-09-12T07:37:22;11.90;;;5.78;;
37241;SDS011;23135;51.078;12.108;2023-09-12T07:39:48;16.15;;;5.55;;
37241;SDS011;23135;51.078;12.108;2023-09-12T07:42:13;12.30;;;5.85;;
37241;SDS011;23135;51.078;12.108;2023-09-12T07:44:39;12.40;;;6.07;;
37241;SDS011;23135;51.078;12.108;2023-09-12T07:47:05;16.60;;;6.18;;
37241;SDS011;23135;51.078;12.108;2023-09-12T07:49:30;23.08;;;5.47;;
37241;SDS011;23135;51.078;12.108;2023-09-12T07:51:56;11.32;;;4.65;;
37241;SDS011;23135;51.078;12.108;2023-09-12T07:54:22;18.15;;;4.38;;
37241;SDS011;23135;51.078;12.108;2023-09-12T07:56:48;16.98;;;5.00;;
37241;SDS011;23135;51.078;12.108;2023-09-12T07:59:13;10.43;;;4.38;;
37241;SDS011;23135;51.078;12.108;2023-09-12T08:01:39;11.98;;;4.57;;
37241;SDS011;23135;51.078;12.108;2023-09-12T08:04:05;9.75;;;4.30;;
37241;SDS011;23135;51.078;12.108;2023-09-12T08:06:31;20.90;;;5.72;;
37241;SDS011;23135;51.078;12.108;2023-09-12T08:08:57;7.97;;;4.32;;
37241;SDS011;23135;51.078;12.108;2023-09-12T08:11:23;14.13;;;4.93;;
37241;SDS011;23135;51.078;12.108;2023-09-12T08:13:49;25.70;;;5.10;;
37241;SDS011;23135;51.078;12.108;2023-09-12T08:16:15;11.48;;;4.88;;
37241;SDS011;23135;51.078;12.108;2023-09-12T08:18:41;20.15;;;4.32;;
37241;SDS011;23135;51.078;12.108;2023-09-12T08:21:07;16.00;;;4.25;;
37241;SDS011;23135;51.078;12.108;2023-09-12T08:23:33;21.90;;;5.60;;
37241;SDS011;23135;51.078;12.108;2023-09-12T08:25:59;20.20;;;4.30;;
37241;SDS011;23135;51.078;12.108;2023-09-12T08:28:25;18.48;;;4.32;;
37241;SDS011;23135;51.078;12.108;2023-09-12T08:30:51;23.15;;;4.43;;
37241;SDS011;23135;51.078;12.108;2023-09-12T08:33:17;15.80;;;4.15;;
37241;SDS011;23135;51.078;12.108;2023-09-12T08:35:42;16.33;;;4.70;;
37241;SDS011;23135;51.078;12.108;2023-09-12T08:38:08;24.48;;;4.25;;
37241;SDS011;23135;51.078;12.108;2023-09-12T08:40:34;18.33;;;4.03;;
37241;SDS011;23135;51.078;12.108;2023-09-12T08:43:00;21.15;;;4.72;;
37241;SDS011;23135;51.078;12.108;2023-09-12T08:45:28;19.33;;;5.45;;
37241;SDS011;23135;51.078;12.108;2023-09-12T08:47:55;18.80;;;5.03;;
37241;SDS011;23135;51.078;12.108;2023-09-12T08:50:23;19.88;;;3.80;;
37241;SDS011;23135;51.078;12.108;2023-09-12T08:52:49;26.25;;;4.70;;
37241;SDS011;23135;51.078;12.108;2023-09-12T08:55:16;14.52;;;3.65;;
37241;SDS011;23135;51.078;12.108;2023-09-12T08:57:42;21.80;;;5.00;;
37241;SDS011;23135;51.078;12.108;2023-09-12T09:00:11;23.67;;;4.38;;
37241;SDS011;23135;51.078;12.108;2023-09-12T09:02:38;18.38;;;5.38;;
37241;SDS011;23135;51.078;12.108;2023-09-12T09:05:08;15.45;;;4.65;;
37241;SDS011;23135;51.078;12.108;2023-09-12T09:07:40;19.10;;;5.40;;
37241;SDS011;23135;51.078;12.108;2023-09-12T09:10:16;23.40;;;6.35;;
37241;SDS011;23135;51.078;12.108;2023-09-12T09:12:43;30.13;;;6.20;;
37241;SDS011;23135;51.078;12.108;2023-09-12T09:20:25;23.90;;;5.32;;
37241;SDS011;23135;51.078;12.108;2023-09-12T09:22:55;18.38;;;5.47;;
37241;SDS011;23135;51.078;12.108;2023-09-12T09:25:32;15.38;;;6.05;;
37241;SDS011;23135;51.078;12.108;2023-09-12T09:27:58;16.10;;;4.70;;
37241;SDS011;23135;51.078;12.108;2023-09-12T09:30:47;19.85;;;6.10;;
37241;SDS011;23135;51.078;12.108;2023-09-12T09:33:16;22.77;;;6.03;;
37241;SDS011;23135;51.078;12.108;2023-09-12T09:35:42;20.15;;;6.70;;
37241;SDS011;23135;51.078;12.108;2023-09-12T09:38:10;19.92;;;6.75;;
37241;SDS011;23135;51.078;12.108;2023-09-12T09:40:41;20.85;;;6.85;;
37241;SDS011;23135;51.078;12.108;2023-09-12T09:43:07;16.38;;;6.30;;
37241;SDS011;23135;51.078;12.108;2023-09-12T09:45:33;14.48;;;6.80;;
37241;SDS011;23135;51.078;12.108;2023-09-12T09:48:08;27.50;;;7.53;;
37241;SDS011;23135;51.078;12.108;2023-09-12T09:50:34;23.85;;;7.85;;
37241;SDS011;23135;51.078;12.108;2023-09-12T09:53:03;24.10;;;7.78;;
37241;SDS011;23135;51.078;12.108;2023-09-12T09:55:33;21.80;;;7.57;;
37241;SDS011;23135;51.078;12.108;2023-09-12T09:57:59;19.95;;;7.88;;
37241;SDS011;23135;51.078;12.108;2023-09-12T10:00:25;16.65;;;8.25;;
37241;SDS011;23135;51.078;12.108;2023-09-12T10:02:53;24.17;;;8.13;;
37241;SDS011;23135;51.078;12.108;2023-09-12T10:05:20;19.10;;;8.43;;
37241;SDS011;23135;51.078;12.108;2023-09-12T10:07:47;22.73;;;8.00;;
37241;SDS011;23135;51.078;12.108;2023-09-12T10:10:18;25.38;;;7.40;;
37241;SDS011;23135;51.078;12.108;2023-09-12T10:12:53;22.17;;;7.43;;
37241;SDS011;23135;51.078;12.108;2023-09-12T10:15:22;22.13;;;8.32;;
37241;SDS011;23135;51.078;12.108;2023-09-12T10:17:56;18.08;;;7.43;;
37241;SDS011;23135;51.078;12.108;2023-09-12T10:20:24;19.15;;;7.47;;
37241;SDS011;23135;51.078;12.108;2023-09-12T10:23:14;23.40;;;7.35;;
37241;SDS011;23135;51.078;12.108;2023-09-12T10:25:46;17.55;;;6.88;;
37241;SDS011;23135;51.078;12.108;2023-09-12T10:28:14;22.90;;;9.18;;
37241;SDS011;23135;51.078;12.108;2023-09-12T10:30:40;20.27;;;9.13;;
37241;SDS011;23135;51.078;12.108;2023-09-12T10:33:06;20.88;;;8.75;;
37241;SDS011;23135;51.078;12.108;2023-09-12T10:35:33;17.95;;;8.60;;
37241;SDS011;23135;51.078;12.108;2023-09-12T10:38:00;16.33;;;8.95;;
37241;SDS011;23135;51.078;12.108;2023-09-12T10:40:30;24.08;;;7.90;;
37241;SDS011;23135;51.078;12.108;2023-09-12T10:42:57;14.25;;;8.73;;
37241;SDS011;23135;51.078;12.108;2023-09-12T10:45:28;25.42;;;9.02;;
37241;SDS011;23135;51.078;12.108;2023-09-12T10:47:56;24.27;;;10.25;;
37241;SDS011;23135;51.078;12.108;2023-09-12T10:50:22;21.98;;;9.30;;
37241;SDS011;23135;51.078;12.108;2023-09-12T10:52:48;20.90;;;9.90;;
37241;SDS011;23135;51.078;12.108;2023-09-12T10:55:17;21.38;;;8.75;;
37241;SDS011;23135;51.078;12.108;2023-09-12T10:58:02;16.77;;;8.52;;
37241;SDS011;23135;51.078;12.108;2023-09-12T11:00:29;26.92;;;8.63;;
37241;SDS011;23135;51.078;12.108;2023-09-12T11:02:57;26.17;;;9.88;;
37241;SDS011;23135;51.078;12.108;2023-09-12T11:07:58;16.83;;;7.18;;
37241;SDS011;23135;51.078;12.108;2023-09-12T11:10:25;21.13;;;7.80;;
37241;SDS011;23135;51.078;12.108;2023-09-12T11:12:52;22.73;;;8.48;;
37241;SDS011;23135;51.078;12.108;2023-09-12T11:15:20;18.50;;;7.68;;
37241;SDS011;23135;51.078;12.108;2023-09-12T11:17:47;24.83;;;8.00;;
37241;SDS011;23135;51.078;12.108;2023-09-12T11:20:15;22.67;;;9.20;;
37241;SDS011;23135;51.078;12.108;2023-09-12T11:22:47;14.38;;;6.95;;
37241;SDS011;23135;51.078;12.108;2023-09-12T11:25:16;28.40;;;8.15;;
37241;SDS011;23135;51.078;12.108;2023-09-12T11:30:23;26.50;;;6.90;;
37241;SDS011;23135;51.078;12.108;2023-09-12T11:32:56;19.70;;;8.10;;
37241;SDS011;23135;51.078;12.108;2023-09-12T11:35:23;15.43;;;6.20;;
37241;SDS011;23135;51.078;12.108;2023-09-12T11:37:50;22.75;;;6.40;;
37241;SDS011;23135;51.078;12.108;2023-09-12T11:40:21;25.88;;;7.22;;
37241;SDS011;23135;51.078;12.108;2023-09-12T11:43:06;19.63;;;7.32;;
37241;SDS011;23135;51.078;12.108;2023-09-12T11:45:33;19.55;;;6.93;;
37241;SDS011;23135;51.078;12.108;2023-09-12T11:47:58;18.80;;;7.00;;
37241;SDS011;23135;51.078;12.108;2023-09-12T11:50:28;21.30;;;5.93;;
37241;SDS011;23135;51.078;12.108;2023-09-12T11:53:08;21.15;;;6.00;;
37241;SDS011;23135;51.078;12.108;2023-09-12T11:55:36;22.33;;;6.53;;
37241;SDS011;23135;51.078;12.108;2023-09-12T11:58:12;15.85;;;6.38;;
37241;SDS011;23135;51.078;12.108;2023-09-12T12:00:46;14.52;;;5.47;;
37241;SDS011;23135;51.078;12.108;2023-09-12T12:03:16;17.02;;;5.28;;
37241;SDS011;23135;51.078;12.108;2023-09-12T12:05:43;19.05;;;5.72;;
37241;SDS011;23135;51.078;12.108;2023-09-12T12:08:13;14.23;;;5.95;;
37241;SDS011;23135;51.078;12.108;2023-09-12T12:10:39;17.03;;;5.80;;
37241;SDS011;23135;51.078;12.108;2023-09-12T12:13:06;19.20;;;4.72;;
37241;SDS011;23135;51.078;12.108;2023-09-12T12:15:42;15.70;;;5.05;;
37241;SDS011;23135;51.078;12.108;2023-09-12T12:18:08;14.90;;;5.25;;
37241;SDS011;23135;51.078;12.108;2023-09-12T12:20:33;19.67;;;5.20;;
37241;SDS011;23135;51.078;12.108;2023-09-12T12:22:59;15.65;;;4.82;;
37241;SDS011;23135;51.078;12.108;2023-09-12T12:25:25;14.98;;;4.50;;
37241;SDS011;23135;51.078;12.108;2023-09-12T12:27:50;13.02;;;3.70;;
37241;SDS011;23135;51.078;12.108;2023-09-12T12:30:17;11.63;;;3.58;;
37241;SDS011;23135;51.078;12.108;2023-09-12T12:32:43;19.23;;;4.28;;
37241;SDS011;23135;51.078;12.108;2023-09-12T12:35:20;11.27;;;3.13;;
37241;SDS011;23135;51.078;12.108;2023-09-12T12:37:48;15.27;;;3.97;;
37241;SDS011;23135;51.078;12.108;2023-09-12T12:40:15;8.07;;;2.88;;
37241;SDS011;23135;51.078;12.108;2023-09-12T12:42:42;13.60;;;3.75;;
37241;SDS011;23135;51.078;12.108;2023-09-12T12:45:16;11.18;;;3.70;;
37241;SDS011;23135;51.078;12.108;2023-09-12T12:47:43;18.45;;;4.93;;
37241;SDS011;23135;51.078;12.108;2023-09-12T12:50:12;26.98;;;4.45;;
37241;SDS011;23135;51.078;12.108;2023-09-12T12:52:39;10.32;;;3.10;;
37241;SDS011;23135;51.078;12.108;2023-09-12T12:55:05;12.13;;;3.63;;
37241;SDS011;23135;51.078;12.108;2023-09-12T12:57:39;10.50;;;3.78;;
37241;SDS011;23135;51.078;12.108;2023-09-12T13:00:08;12.80;;;3.47;;
37241;SDS011;23135;51.078;12.108;2023-09-12T13:02:39;19.65;;;3.28;;
37241;SDS011;23135;51.078;12.108;2023-09-12T13:05:28;13.95;;;4.10;;
37241;SDS011;23135;51.078;12.108;2023-09-12T13:07:52;18.17;;;4.07;;
37241;SDS011;23135;51.078;12.108;2023-09-12T13:10:18;13.15;;;3.92;;
37241;SDS011;23135;51.078;12.108;2023-09-12T13:12:44;13.93;;;3.63;;
37241;SDS011;23135;51.078;12.108;2023-09-12T13:15:13;11.35;;;3.40;;
37241;SDS011;23135;51.078;12.108;2023-09-12T13:17:43;8.82;;;3.53;;
37241;SDS011;23135;51.078;12.108;2023-09-12T13:20:09;14.93;;;4.05;;
37241;SDS011;23135;51.078;12.108;2023-09-12T13:22:36;12.55;;;4.22;;
37241;SDS011;23135;51.078;12.108;2023-09-12T13:25:02;18.92;;;4.65;;
37241;SDS011;23135;51.078;12.108;2023-09-12T13:27:28;14.02;;;3.53;;
37241;SDS011;23135;51.078;12.108;2023-09-12T13:29:54;16.73;;;4.05;;
37241;SDS011;23135;51.078;12.108;2023-09-12T13:32:20;20.83;;;5.32;;
37241;SDS011;23135;51.078;12.108;2023-09-12T13:34:45;8.63;;;3.30;;
37241;SDS011;23135;51.078;12.108;2023-09-12T13:37:11;19.40;;;4.20;;
37241;SDS011;23135;51.078;12.108;2023-09-12T13:39:36;16.88;;;3.72;;
37241;SDS011;23135;51.078;12.108;2023-09-12T13:42:02;10.18;;;3.35;;
37241;SDS011;23135;51.078;12.108;2023-09-12T13:44:29;15.98;;;3.42;;
37241;SDS011;23135;51.078;12.108;2023-09-12T13:46:55;15.45;;;3.72;;
37241;SDS011;23135;51.078;12.108;2023-09-12T13:49:21;15.82;;;4.30;;
37241;SDS011;23135;51.078;12.108;2023-09-12T13:51:46;11.43;;;3.20;;
37241;SDS011;23135;51.078;12.108;2023-09-12T13:54:12;23.10;;;4.25;;
37241;SDS011;23135;51.078;12.108;2023-09-12T13:56:43;16.05;;;4.78;;
37241;SDS011;23135;51.078;12.108;2023-09-12T13:59:09;18.92;;;3.88;;
37241;SDS011;23135;51.078;12.108;2023-09-12T14:01:35;9.95;;;3.60;;
37241;SDS011;23135;51.078;12.108;2023-09-12T14:04:01;20.15;;;3.97;;
37241;SDS011;23135;51.078;12.108;2023-09-12T14:06:29;15.18;;;3.47;;
37241;SDS011;23135;51.078;12.108;2023-09-12T14:08:56;13.10;;;3.47;;
37241;SDS011;23135;51.078;12.108;2023-09-12T14:11:22;18.33;;;4.03;;
37241;SDS011;23135;51.078;12.108;2023-09-12T14:13:47;17.27;;;3.72;;
37241;SDS011;23135;51.078;12.108;2023-09-12T14:16:13;17.40;;;4.47;;
37241;SDS011;23135;51.078;12.108;2023-09-12T14:18:38;25.48;;;4.13;;
37241;SDS011;23135;51.078;12.108;2023-09-12T14:21:04;23.40;;;4.95;;
37241;SDS011;23135;51.078;12.108;2023-09-12T14:23:30;20.30;;;4.82;;
37241;SDS011;23135;51.078;12.108;2023-09-12T14:25:55;21.70;;;4.70;;
37241;SDS011;23135;51.078;12.108;2023-09-12T14:28:21;23.92;;;4.07;;
37241;SDS011;23135;51.078;12.108;2023-09-12T14:30:46;21.25;;;3.90;;
37241;SDS011;23135;51.078;12.108;2023-09-12T14:33:14;22.00;;;4.15;;
37241;SDS011;23135;51.078;12.108;2023-09-12T14:35:40;15.25;;;3.92;;
37241;SDS011;23135;51.078;12.108;2023-09-12T14:38:06;17.48;;;4.13;;
37241;SDS011;23135;51.078;12.108;2023-09-12T14:40:32;18.05;;;3.55;;
37241;SDS011;23135;51.078;12.108;2023-09-12T14:42:59;24.95;;;4.97;;